sensor_id;sensor_type;location;lat;lon;timestamp;pressure;altitude;pressure_sealevel;temperature;humidity
9281;BME280;4679;47.966;7.958;2022-09-27T06:17:50;95834.47;;;8.70;84.33
9281;BME280;4679;47.966;7.958;2022-09-27T06:19:52;95832.88;;;8.74;84.42
9281;BME280;4679;47.966;7.958;2022-09-27T06:21:54;95834.19;;;8.77;84.50
9281;BME280;4679;47.966;7.958;2022-09-27T06:23:56;95835.25;;;8.76;84.26
9281;BME280;4679;47.966;7.958;2022-09-27T06:26:00;95840.28;;;8.77;84.24
9281;BME280;4679;47.966;7.958;2022-09-27T06:28:03;95849.28;;;8.76;84.16
9281;BME280;4679;47.966;7.958;2022-09-27T06:30:06;95848.75;;;8.79;84.13
9281;BME280;4679;47.966;7.958;2022-09-27T06:32:08;95852.72;;;8.82;84.00
9281;BME280;4679;47.966;7.958;2022-09-27T06:34:11;95863.31;;;8.82;83.88
9281;BME280;4679;47.966;7.958;2022-09-27T06:36:13;95854.31;;;8.83;84.11
9281;BME280;4679;47.966;7.958;2022-09-27T06:38:16;95859.59;;;8.83;84.09
9281;BME280;4679;47.966;7.958;2022-09-27T06:40:20;95860.41;;;8.84;84.49
9281;BME280;4679;47.966;7.958;2022-09-27T06:42:25;95865.94;;;8.87;84.13
9281;BME280;4679;47.966;7.958;2022-09-27T06:44:27;95868.88;;;8.86;84.27
9281;BME280;4679;47.966;7.958;2022-09-27T06:46:29;95867.53;;;8.88;84.19
9281;BME280;4679;47.966;7.958;2022-09-27T06:48:31;95867.81;;;8.92;84.51
9281;BME280;4679;47.966;7.958;2022-09-27T06:50:35;95871.78;;;8.94;84.44
9281;BME280;4679;47.966;7.958;2022-09-27T06:52:45;95865.41;;;8.90;84.00
9281;BME280;4679;47.966;7.958;2022-09-27T06:54:47;95873.63;;;8.94;84.11
9281;BME280;4679;47.966;7.958;2022-09-27T06:56:49;95867.81;;;8.92;84.12
9281;BME280;4679;47.966;7.958;2022-09-27T06:58:51;95870.97;;;8.94;84.01
9281;BME280;4679;47.966;7.958;2022-09-27T07:01:10;95870.97;;;8.94;84.22
9281;BME280;4679;47.966;7.958;2022-09-27T07:03:12;95874.69;;;8.93;84.25
9281;BME280;4679;47.966;7.958;2022-09-27T07:05:14;95867.53;;;8.93;84.36
9281;BME280;4679;47.966;7.958;2022-09-27T07:07:17;95865.16;;;8.92;84.28
9281;BME280;4679;47.966;7.958;2022-09-27T07:09:19;95875.22;;;8.95;84.43
9281;BME280;4679;47.966;7.958;2022-09-27T07:11:21;95870.19;;;8.98;84.38
9281;BME280;4679;47.966;7.958;2022-09-27T07:13:25;95868.88;;;9.01;84.20
9281;BME280;4679;47.966;7.958;2022-09-27T07:15:33;95871.78;;;9.04;83.88
9281;BME280;4679;47.966;7.958;2022-09-27T07:17:36;95868.88;;;9.06;84.20
9281;BME280;4679;47.966;7.958;2022-09-27T07:19:38;95884.22;;;9.09;84.06
9281;BME280;4679;47.966;7.958;2022-09-27T07:21:40;95886.88;;;9.09;84.15
9281;BME280;4679;47.966;7.958;2022-09-27T07:23:43;95884.22;;;9.14;84.15
9281;BME280;4679;47.966;7.958;2022-09-27T07:25:46;95885.53;;;9.22;83.78
9281;BME280;4679;47.966;7.958;2022-09-27T07:27:48;95890.03;;;9.26;83.73
9281;BME280;4679;47.966;7.958;2022-09-27T07:29:49;95886.34;;;9.27;84.08
9281;BME280;4679;47.966;7.958;2022-09-27T07:31:51;95884.50;;;9.28;83.82
9281;BME280;4679;47.966;7.958;2022-09-27T07:33:53;95890.03;;;9.26;84.31
9281;BME280;4679;47.966;7.958;2022-09-27T07:35:55;95891.38;;;9.24;83.68
9281;BME280;4679;47.966;7.958;2022-09-27T07:37:57;95890.03;;;9.21;84.26
9281;BME280;4679;47.966;7.958;2022-09-27T07:40:01;95891.09;;;9.25;84.16
9281;BME280;4679;47.966;7.958;2022-09-27T07:42:03;95886.88;;;9.24;84.25
9281;BME280;4679;47.966;7.958;2022-09-27T07:44:05;95888.19;;;9.27;84.16
9281;BME280;4679;47.966;7.958;2022-09-27T07:46:08;95885.03;;;9.30;83.64
9281;BME280;4679;47.966;7.958;2022-09-27T07:48:12;95883.97;;;9.31;84.34
9281;BME280;4679;47.966;7.958;2022-09-27T07:50:14;95892.44;;;9.28;84.44
9281;BME280;4679;47.966;7.958;2022-09-27T07:52:17;95889.00;;;9.27;83.72
9281;BME280;4679;47.966;7.958;2022-09-27T07:54:18;95888.19;;;9.32;84.08
9281;BME280;4679;47.966;7.958;2022-09-27T07:56:22;95885.25;;;9.33;83.85
9281;BME280;4679;47.966;7.958;2022-09-27T07:58:24;95890.81;;;9.37;83.84
9281;BME280;4679;47.966;7.958;2022-09-27T08:00:26;95893.75;;;9.40;84.11
9281;BME280;4679;47.966;7.958;2022-09-27T08:02:28;95897.19;;;9.41;83.74
9281;BME280;4679;47.966;7.958;2022-09-27T08:04:32;95901.97;;;9.44;83.42
9281;BME280;4679;47.966;7.958;2022-09-27T08:06:34;95909.91;;;9.44;83.46
9281;BME280;4679;47.966;7.958;2022-09-27T08:08:36;95911.50;;;9.45;83.33
9281;BME280;4679;47.966;7.958;2022-09-27T08:10:38;95910.94;;;9.48;83.80
9281;BME280;4679;47.966;7.958;2022-09-27T08:12:48;95912.03;;;9.47;83.58
9281;BME280;4679;47.966;7.958;2022-09-27T08:14:50;95918.88;;;9.48;83.51
9281;BME280;4679;47.966;7.958;2022-09-27T08:16:52;95922.06;;;9.50;83.12
9281;BME280;4679;47.966;7.958;2022-09-27T08:18:54;95924.19;;;9.53;83.39
9281;BME280;4679;47.966;7.958;2022-09-27T08:20:56;95926.31;;;9.56;83.42
9281;BME280;4679;47.966;7.958;2022-09-27T08:22:59;95920.47;;;9.59;82.74
9281;BME280;4679;47.966;7.958;2022-09-27T08:25:04;95929.75;;;9.62;82.48
9281;BME280;4679;47.966;7.958;2022-09-27T08:27:06;95920.44;;;9.64;82.85
9281;BME280;4679;47.966;7.958;2022-09-27T08:29:09;95914.63;;;9.67;82.28
9281;BME280;4679;47.966;7.958;2022-09-27T08:31:12;95926.81;;;9.73;82.14
9281;BME280;4679;47.966;7.958;2022-09-27T08:33:13;95924.69;;;9.75;81.95
9281;BME280;4679;47.966;7.958;2022-09-27T08:35:15;95937.94;;;9.75;81.97
9281;BME280;4679;47.966;7.958;2022-09-27T08:37:17;95936.59;;;9.78;82.27
9281;BME280;4679;47.966;7.958;2022-09-27T08:39:19;95942.44;;;9.75;81.69
9281;BME280;4679;47.966;7.958;2022-09-27T08:41:27;95954.91;;;9.74;81.65
9281;BME280;4679;47.966;7.958;2022-09-27T08:43:35;95953.84;;;9.70;81.53
9281;BME280;4679;47.966;7.958;2022-09-27T08:45:59;95950.38;;;9.65;82.24
9281;BME280;4679;47.966;7.958;2022-09-27T08:48:04;95952.78;;;9.56;82.14
9281;BME280;4679;47.966;7.958;2022-09-27T08:50:20;95957.03;;;9.47;82.04
9281;BME280;4679;47.966;7.958;2022-09-27T08:52:26;95958.63;;;9.43;81.88
9281;BME280;4679;47.966;7.958;2022-09-27T08:54:30;95975.03;;;9.40;82.09
9281;BME280;4679;47.966;7.958;2022-09-27T08:56:33;95966.81;;;9.31;82.19
9281;BME280;4679;47.966;7.958;2022-09-27T08:58:39;95978.44;;;9.25;82.39
9281;BME280;4679;47.966;7.958;2022-09-27T09:00:43;95970.25;;;9.16;82.19
9281;BME280;4679;47.966;7.958;2022-09-27T09:02:45;95965.47;;;9.13;82.85
9281;BME280;4679;47.966;7.958;2022-09-27T09:04:50;95966.00;;;9.21;82.09
9281;BME280;4679;47.966;7.958;2022-09-27T09:06:59;95965.47;;;9.18;82.56
9281;BME280;4679;47.966;7.958;2022-09-27T09:09:14;95962.81;;;9.24;82.31
9281;BME280;4679;47.966;7.958;2022-09-27T09:11:30;95966.28;;;9.29;82.46
9281;BME280;4679;47.966;7.958;2022-09-27T09:14:20;95961.25;;;9.38;82.27
9281;BME280;4679;47.966;7.958;2022-09-27T09:16:36;95956.22;;;9.41;82.25
9281;BME280;4679;47.966;7.958;2022-09-27T09:18:56;95956.50;;;9.45;82.12
9281;BME280;4679;47.966;7.958;2022-09-27T09:21:10;95951.19;;;9.50;81.91
9281;BME280;4679;47.966;7.958;2022-09-27T09:23:25;95950.91;;;9.51;81.75
9281;BME280;4679;47.966;7.958;2022-09-27T09:25:39;95944.31;;;9.59;81.79
9281;BME280;4679;47.966;7.958;2022-09-27T09:27:53;95947.22;;;9.68;81.55
9281;BME280;4679;47.966;7.958;2022-09-27T09:30:18;95944.81;;;9.71;82.05
9281;BME280;4679;47.966;7.958;2022-09-27T09:32:29;95946.16;;;9.74;82.27
9281;BME280;4679;47.966;7.958;2022-09-27T09:34:37;95943.22;;;9.80;81.71
9281;BME280;4679;47.966;7.958;2022-09-27T09:36:44;95944.25;;;9.95;81.94
9281;BME280;4679;47.966;7.958;2022-09-27T09:38:50;95948.50;;;10.01;81.65
9281;BME280;4679;47.966;7.958;2022-09-27T09:40:57;95937.34;;;10.04;81.87
9281;BME280;4679;47.966;7.958;2022-09-27T09:43:03;95933.38;;;10.06;81.61
9281;BME280;4679;47.966;7.958;2022-09-27T09:45:14;95938.94;;;10.05;81.88
9281;BME280;4679;47.966;7.958;2022-09-27T09:47:26;95942.91;;;10.07;81.11
9281;BME280;4679;47.966;7.958;2022-09-27T09:49:34;95944.75;;;10.12;81.08
9281;BME280;4679;47.966;7.958;2022-09-27T09:51:42;95941.56;;;10.10;81.27
9281;BME280;4679;47.966;7.958;2022-09-27T09:53:50;95935.22;;;10.11;82.22
9281;BME280;4679;47.966;7.958;2022-09-27T09:55:56;95939.44;;;10.17;81.62
9281;BME280;4679;47.966;7.958;2022-09-27T09:58:04;95937.31;;;10.24;81.57
9281;BME280;4679;47.966;7.958;2022-09-27T10:00:14;95930.66;;;10.32;81.68
9281;BME280;4679;47.966;7.958;2022-09-27T10:02:25;95933.78;;;10.49;81.65
9281;BME280;4679;47.966;7.958;2022-09-27T10:04:30;95935.31;;;10.65;80.72
9281;BME280;4679;47.966;7.958;2022-09-27T10:06:33;95932.63;;;10.70;80.72
9281;BME280;4679;47.966;7.958;2022-09-27T10:08:35;95936.38;;;10.69;80.32
9281;BME280;4679;47.966;7.958;2022-09-27T10:10:37;95920.91;;;10.76;80.03
9281;BME280;4679;47.966;7.958;2022-09-27T10:12:39;95933.47;;;11.10;79.56
9281;BME280;4679;47.966;7.958;2022-09-27T10:14:41;95921.59;;;11.36;78.88
9281;BME280;4679;47.966;7.958;2022-09-27T10:16:48;95930.63;;;11.35;80.10
9281;BME280;4679;47.966;7.958;2022-09-27T10:18:52;95930.72;;;11.25;79.56
9281;BME280;4679;47.966;7.958;2022-09-27T10:21:01;95914.00;;;11.19;80.19
9281;BME280;4679;47.966;7.958;2022-09-27T10:23:10;95922.72;;;11.30;79.51
9281;BME280;4679;47.966;7.958;2022-09-27T10:25:13;95927.16;;;11.35;79.11
9281;BME280;4679;47.966;7.958;2022-09-27T10:27:17;95911.50;;;11.33;79.04
9281;BME280;4679;47.966;7.958;2022-09-27T10:29:23;95920.63;;;11.22;79.45
9281;BME280;4679;47.966;7.958;2022-09-27T10:31:34;95898.47;;;11.37;79.89
9281;BME280;4679;47.966;7.958;2022-09-27T10:33:38;95904.84;;;11.36;79.06
9281;BME280;4679;47.966;7.958;2022-09-27T10:35:51;95892.47;;;11.26;79.17
9281;BME280;4679;47.966;7.958;2022-09-27T10:38:11;95907.34;;;11.22;79.38
9281;BME280;4679;47.966;7.958;2022-09-27T10:40:27;95903.50;;;11.04;78.94
9281;BME280;4679;47.966;7.958;2022-09-27T10:42:33;95901.16;;;10.98;80.81
9281;BME280;4679;47.966;7.958;2022-09-27T10:44:35;95904.91;;;10.91;80.04
9281;BME280;4679;47.966;7.958;2022-09-27T10:46:37;95910.22;;;10.91;79.69
9281;BME280;4679;47.966;7.958;2022-09-27T10:48:39;95896.41;;;10.95;79.40
9281;BME280;4679;47.966;7.958;2022-09-27T10:50:55;95897.72;;;10.97;79.33
9281;BME280;4679;47.966;7.958;2022-09-27T10:53:04;95892.94;;;10.99;79.77
9281;BME280;4679;47.966;7.958;2022-09-27T10:55:20;95899.19;;;11.13;78.44
9281;BME280;4679;47.966;7.958;2022-09-27T10:57:24;95894.91;;;11.17;79.26
9281;BME280;4679;47.966;7.958;2022-09-27T10:59:28;95898.16;;;11.09;78.56
9281;BME280;4679;47.966;7.958;2022-09-27T11:01:39;95902.19;;;11.02;78.41
9281;BME280;4679;47.966;7.958;2022-09-27T11:03:46;95898.72;;;11.01;78.64
9281;BME280;4679;47.966;7.958;2022-09-27T11:05:49;95913.88;;;11.01;79.12
9281;BME280;4679;47.966;7.958;2022-09-27T11:07:55;95899.53;;;11.02;78.54
9281;BME280;4679;47.966;7.958;2022-09-27T11:09:58;95903.56;;;10.99;78.82
9281;BME280;4679;47.966;7.958;2022-09-27T11:12:07;95896.44;;;10.89;78.54
9281;BME280;4679;47.966;7.958;2022-09-27T11:14:17;95897.25;;;10.85;78.70
9281;BME280;4679;47.966;7.958;2022-09-27T11:16:29;95912.09;;;10.86;77.77
9281;BME280;4679;47.966;7.958;2022-09-27T11:18:43;95885.78;;;10.95;78.07
9281;BME280;4679;47.966;7.958;2022-09-27T11:20:52;95883.84;;;11.05;77.61
9281;BME280;4679;47.966;7.958;2022-09-27T11:23:32;95889.94;;;11.11;77.64
9281;BME280;4679;47.966;7.958;2022-09-27T11:25:46;95884.56;;;11.16;77.41
9281;BME280;4679;47.966;7.958;2022-09-27T11:27:59;95888.31;;;11.15;76.77
9281;BME280;4679;47.966;7.958;2022-09-27T11:30:08;95890.91;;;11.20;77.34
9281;BME280;4679;47.966;7.958;2022-09-27T11:32:18;95870.44;;;11.25;77.13
9281;BME280;4679;47.966;7.958;2022-09-27T11:34:41;95878.53;;;11.39;76.20
9281;BME280;4679;47.966;7.958;2022-09-27T11:36:56;95870.69;;;11.58;75.69
9281;BME280;4679;47.966;7.958;2022-09-27T11:39:08;95874.91;;;11.59;75.83
9281;BME280;4679;47.966;7.958;2022-09-27T11:41:29;95866.16;;;11.58;76.18
9281;BME280;4679;47.966;7.958;2022-09-27T11:43:45;95860.06;;;11.58;75.31
9281;BME280;4679;47.966;7.958;2022-09-27T11:45:57;95853.44;;;11.55;76.33
9281;BME280;4679;47.966;7.958;2022-09-27T11:48:10;95858.59;;;11.42;75.86
9281;BME280;4679;47.966;7.958;2022-09-27T11:50:41;95853.44;;;11.26;76.31
9281;BME280;4679;47.966;7.958;2022-09-27T11:52:55;95865.66;;;11.22;76.80
9281;BME280;4679;47.966;7.958;2022-09-27T11:55:14;95844.00;;;11.10;76.43
9281;BME280;4679;47.966;7.958;2022-09-27T11:57:24;95849.38;;;11.00;76.80
9281;BME280;4679;47.966;7.958;2022-09-27T11:59:39;95859.97;;;11.00;77.06
9281;BME280;4679;47.966;7.958;2022-09-27T12:01:48;95878.91;;;10.93;76.37
9281;BME280;4679;47.966;7.958;2022-09-27T12:04:20;95845.22;;;10.89;76.42
9281;BME280;4679;47.966;7.958;2022-09-27T12:06:36;95851.53;;;10.98;76.58
9281;BME280;4679;47.966;7.958;2022-09-27T12:08:56;95851.31;;;11.23;76.45
9281;BME280;4679;47.966;7.958;2022-09-27T12:11:07;95850.91;;;11.69;76.06
9281;BME280;4679;47.966;7.958;2022-09-27T12:13:15;95847.63;;;12.06;74.29
9281;BME280;4679;47.966;7.958;2022-09-27T12:15:20;95851.97;;;12.21;74.34
9281;BME280;4679;47.966;7.958;2022-09-27T12:17:26;95833.81;;;12.04;74.93
9281;BME280;4679;47.966;7.958;2022-09-27T12:19:31;95837.44;;;12.32;73.92
9281;BME280;4679;47.966;7.958;2022-09-27T12:21:33;95838.00;;;12.29;74.60
9281;BME280;4679;47.966;7.958;2022-09-27T12:23:38;95838.69;;;12.58;74.34
9281;BME280;4679;47.966;7.958;2022-09-27T12:25:41;95824.66;;;12.90;73.50
9281;BME280;4679;47.966;7.958;2022-09-27T12:27:47;95823.91;;;13.03;73.23
9281;BME280;4679;47.966;7.958;2022-09-27T12:29:54;95829.97;;;12.90;73.82
9281;BME280;4679;47.966;7.958;2022-09-27T12:32:01;95834.88;;;12.64;74.47
9281;BME280;4679;47.966;7.958;2022-09-27T12:34:13;95836.09;;;12.53;74.53
9281;BME280;4679;47.966;7.958;2022-09-27T12:36:17;95837.25;;;12.47;73.80
9281;BME280;4679;47.966;7.958;2022-09-27T12:38:34;95830.19;;;12.38;74.35
9281;BME280;4679;47.966;7.958;2022-09-27T12:40:40;95843.09;;;12.25;74.22
9281;BME280;4679;47.966;7.958;2022-09-27T12:42:47;95817.59;;;12.43;74.18
9281;BME280;4679;47.966;7.958;2022-09-27T12:44:51;95827.25;;;12.58;73.48
9281;BME280;4679;47.966;7.958;2022-09-27T12:47:03;95829.56;;;12.64;73.31
9281;BME280;4679;47.966;7.958;2022-09-27T12:49:11;95818.63;;;12.47;73.57
9281;BME280;4679;47.966;7.958;2022-09-27T12:51:18;95822.69;;;12.40;74.31
9281;BME280;4679;47.966;7.958;2022-09-27T12:53:23;95814.22;;;12.38;73.95
9281;BME280;4679;47.966;7.958;2022-09-27T12:55:38;95810.97;;;12.41;73.42
9281;BME280;4679;47.966;7.958;2022-09-27T12:57:50;;;;12.35;
9281;BME280;4679;47.966;7.958;2022-09-27T13:00:05;95809.19;;;12.17;73.66
9281;BME280;4679;47.966;7.958;2022-09-27T13:02:30;95819.72;;;12.04;73.94
9281;BME280;4679;47.966;7.958;2022-09-27T13:04:51;95834.19;;;11.92;74.77
9281;BME280;4679;47.966;7.958;2022-09-27T13:07:06;95837.91;;;11.68;74.20
9281;BME280;4679;47.966;7.958;2022-09-27T13:09:47;95836.47;;;11.51;75.66
9281;BME280;4679;47.966;7.958;2022-09-27T13:12:00;95844.81;;;11.40;76.18
9281;BME280;4679;47.966;7.958;2022-09-27T13:14:05;95845.19;;;11.28;75.46
9281;BME280;4679;47.966;7.958;2022-09-27T13:16:11;95848.19;;;11.16;76.56
9281;BME280;4679;47.966;7.958;2022-09-27T13:18:31;95854.06;;;11.13;75.64
9281;BME280;4679;47.966;7.958;2022-09-27T13:20:51;95856.72;;;11.13;76.87
9281;BME280;4679;47.966;7.958;2022-09-27T13:22:56;95854.06;;;11.13;75.94
9281;BME280;4679;47.966;7.958;2022-09-27T13:24:57;95845.84;;;11.15;76.45
9281;BME280;4679;47.966;7.958;2022-09-27T13:26:59;95853.78;;;11.15;76.13
9281;BME280;4679;47.966;7.958;2022-09-27T13:29:02;95832.56;;;11.15;75.73
9281;BME280;4679;47.966;7.958;2022-09-27T13:31:05;95850.34;;;11.14;77.05
9281;BME280;4679;47.966;7.958;2022-09-27T13:36:05;95846.94;;;11.09;76.40
9281;BME280;4679;47.966;7.958;2022-09-27T13:38:20;95850.94;;;11.06;77.67
9281;BME280;4679;47.966;7.958;2022-09-27T13:40:31;95865.28;;;11.05;77.24
9281;BME280;4679;47.966;7.958;2022-09-27T13:42:38;95866.41;;;10.99;76.90
9281;BME280;4679;47.966;7.958;2022-09-27T13:44:49;95855.81;;;10.94;77.68
9281;BME280;4679;47.966;7.958;2022-09-27T13:46:58;95870.94;;;10.93;77.76
9281;BME280;4679;47.966;7.958;2022-09-27T13:49:04;95872.59;;;10.84;77.14
9281;BME280;4679;47.966;7.958;2022-09-27T13:51:27;95882.44;;;10.79;77.23
9281;BME280;4679;47.966;7.958;2022-09-27T13:53:33;95859.66;;;10.73;78.17
9281;BME280;4679;47.966;7.958;2022-09-27T13:55:44;95868.16;;;10.70;78.47
9281;BME280;4679;47.966;7.958;2022-09-27T13:57:50;95879.59;;;10.65;78.13
9281;BME280;4679;47.966;7.958;2022-09-27T13:59:58;95872.19;;;10.62;78.60
9281;BME280;4679;47.966;7.958;2022-09-27T14:02:12;95886.25;;;10.57;78.42
9281;BME280;4679;47.966;7.958;2022-09-27T14:04:21;95878.91;;;10.49;78.09
9281;BME280;4679;47.966;7.958;2022-09-27T14:06:30;95874.41;;;10.45;78.68
9281;BME280;4679;47.966;7.958;2022-09-27T14:08:38;95872.06;;;10.38;78.75
9281;BME280;4679;47.966;7.958;2022-09-27T14:10:43;95876.59;;;10.33;79.59
9281;BME280;4679;47.966;7.958;2022-09-27T14:12:45;95873.94;;;10.28;79.34
9281;BME280;4679;47.966;7.958;2022-09-27T14:14:48;95874.00;;;10.23;79.73
9281;BME280;4679;47.966;7.958;2022-09-27T14:16:51;95864.72;;;10.20;79.14
9281;BME280;4679;47.966;7.958;2022-09-27T14:18:54;95870.28;;;10.18;79.70
9281;BME280;4679;47.966;7.958;2022-09-27T14:21:11;95847.22;;;10.14;79.14
9281;BME280;4679;47.966;7.958;2022-09-27T14:23:20;95855.16;;;10.14;80.15
9281;BME280;4679;47.966;7.958;2022-09-27T14:25:23;95848.78;;;10.15;79.69
9281;BME280;4679;47.966;7.958;2022-09-27T14:27:25;95854.88;;;10.15;79.54
9281;BME280;4679;47.966;7.958;2022-09-27T14:29:30;95861.25;;;10.14;79.56
9281;BME280;4679;47.966;7.958;2022-09-27T14:31:33;95858.59;;;10.14;80.57
9281;BME280;4679;47.966;7.958;2022-09-27T14:33:35;95870.53;;;10.12;80.14
9281;BME280;4679;47.966;7.958;2022-09-27T14:35:45;95871.06;;;10.09;80.50
9281;BME280;4679;47.966;7.958;2022-09-27T14:38:09;95863.91;;;10.09;80.78
9281;BME280;4679;47.966;7.958;2022-09-27T14:40:20;95866.28;;;10.16;80.89
9281;BME280;4679;47.966;7.958;2022-09-27T14:42:24;95856.22;;;10.23;80.94
9281;BME280;4679;47.966;7.958;2022-09-27T14:44:27;95861.75;;;10.27;79.83
9281;BME280;4679;47.966;7.958;2022-09-27T14:46:31;95867.59;;;10.29;80.06
9281;BME280;4679;47.966;7.958;2022-09-27T14:48:34;95867.56;;;10.39;80.51
9281;BME280;4679;47.966;7.958;2022-09-27T14:50:36;95861.69;;;10.42;80.33
9281;BME280;4679;47.966;7.958;2022-09-27T14:52:38;95865.38;;;10.46;79.93
9281;BME280;4679;47.966;7.958;2022-09-27T14:54:40;95858.50;;;10.45;79.55
9281;BME280;4679;47.966;7.958;2022-09-27T14:56:45;95854.25;;;10.44;80.02
9281;BME280;4679;47.966;7.958;2022-09-27T14:58:49;95861.16;;;10.40;80.37
9281;BME280;4679;47.966;7.958;2022-09-27T15:00:55;95840.25;;;10.38;79.88
9281;BME280;4679;47.966;7.958;2022-09-27T15:03:00;95848.19;;;10.38;79.92
9281;BME280;4679;47.966;7.958;2022-09-27T15:05:12;95846.63;;;10.37;80.81
9281;BME280;4679;47.966;7.958;2022-09-27T15:07:14;95852.72;;;10.38;80.08
9281;BME280;4679;47.966;7.958;2022-09-27T15:09:17;95845.28;;;10.35;80.94
9281;BME280;4679;47.966;7.958;2022-09-27T15:11:19;95841.06;;;10.34;80.45
9281;BME280;4679;47.966;7.958;2022-09-27T15:13:23;95837.59;;;10.33;80.75
9281;BME280;4679;47.966;7.958;2022-09-27T15:15:28;95834.16;;;10.33;80.80
9281;BME280;4679;47.966;7.958;2022-09-27T15:17:40;95829.38;;;10.35;80.57
9281;BME280;4679;47.966;7.958;2022-09-27T15:19:56;95826.69;;;10.40;80.27
9281;BME280;4679;47.966;7.958;2022-09-27T15:22:22;95833.28;;;10.47;79.83
9281;BME280;4679;47.966;7.958;2022-09-27T15:24:38;95827.13;;;10.57;80.36
9281;BME280;4679;47.966;7.958;2022-09-27T15:26:43;95831.09;;;10.60;80.87
9281;BME280;4679;47.966;7.958;2022-09-27T15:28:49;95833.19;;;10.63;79.63
9281;BME280;4679;47.966;7.958;2022-09-27T15:30:53;95831.06;;;10.65;79.83
9281;BME280;4679;47.966;7.958;2022-09-27T15:32:56;95835.03;;;10.67;79.79
9281;BME280;4679;47.966;7.958;2022-09-27T15:35:05;95844.28;;;10.70;79.99
9281;BME280;4679;47.966;7.958;2022-09-27T15:37:23;95844.53;;;10.73;80.25
9281;BME280;4679;47.966;7.958;2022-09-27T15:39:27;95843.47;;;10.74;79.72
9281;BME280;4679;47.966;7.958;2022-09-27T15:44:35;95848.66;;;10.89;79.00
9281;BME280;4679;47.966;7.958;2022-09-27T15:46:39;95848.91;;;10.93;79.67
9281;BME280;4679;47.966;7.958;2022-09-27T15:48:41;95838.81;;;10.95;78.96
9281;BME280;4679;47.966;7.958;2022-09-27T15:50:43;95837.41;;;11.03;79.70
9281;BME280;4679;47.966;7.958;2022-09-27T15:52:47;95846.69;;;11.05;78.02
9281;BME280;4679;47.966;7.958;2022-09-27T15:54:50;95845.66;;;11.01;79.62
9281;BME280;4679;47.966;7.958;2022-09-27T15:56:53;95841.19;;;10.97;78.66
9281;BME280;4679;47.966;7.958;2022-09-27T15:58:56;95841.19;;;10.97;78.92
9281;BME280;4679;47.966;7.958;2022-09-27T16:01:01;95841.97;;;10.97;77.73
9281;BME280;4679;47.966;7.958;2022-09-27T16:03:03;95844.66;;;10.92;78.99
9281;BME280;4679;47.966;7.958;2022-09-27T16:05:05;95859.56;;;10.88;78.77
9281;BME280;4679;47.966;7.958;2022-09-27T16:07:07;95859.88;;;10.81;78.02
9281;BME280;4679;47.966;7.958;2022-09-27T16:09:13;95856.97;;;10.78;77.97
9281;BME280;4679;47.966;7.958;2022-09-27T16:11:19;95861.50;;;10.72;78.76
9281;BME280;4679;47.966;7.958;2022-09-27T16:13:21;95868.16;;;10.70;78.76
9281;BME280;4679;47.966;7.958;2022-09-27T16:15:23;95868.19;;;10.65;77.90
9281;BME280;4679;47.966;7.958;2022-09-27T16:17:26;95868.47;;;10.63;77.98
9281;BME280;4679;47.966;7.958;2022-09-27T16:19:27;95865.56;;;10.60;77.52
9281;BME280;4679;47.966;7.958;2022-09-27T16:21:29;95867.97;;;10.56;77.80
9281;BME280;4679;47.966;7.958;2022-09-27T16:23:31;95871.97;;;10.53;77.98
9281;BME280;4679;47.966;7.958;2022-09-27T16:25:33;95875.97;;;10.51;78.34
9281;BME280;4679;47.966;7.958;2022-09-27T16:27:35;95884.47;;;10.48;77.29
9281;BME280;4679;47.966;7.958;2022-09-27T16:29:36;95882.09;;;10.46;77.05
9281;BME280;4679;47.966;7.958;2022-09-27T16:31:38;95888.47;;;10.40;77.15
9281;BME280;4679;47.966;7.958;2022-09-27T16:33:41;95891.69;;;10.37;76.93
9281;BME280;4679;47.966;7.958;2022-09-27T16:35:43;95875.50;;;10.39;77.23
9281;BME280;4679;47.966;7.958;2022-09-27T16:37:45;95880.03;;;10.38;77.53
9281;BME280;4679;47.966;7.958;2022-09-27T16:39:46;95879.75;;;10.35;77.38
9281;BME280;4679;47.966;7.958;2022-09-27T16:41:48;95875.78;;;10.32;76.79
9281;BME280;4679;47.966;7.958;2022-09-27T16:43:51;95884.81;;;10.31;77.23
9281;BME280;4679;47.966;7.958;2022-09-27T16:45:54;95884.00;;;10.31;77.42
9281;BME280;4679;47.966;7.958;2022-09-27T16:47:58;95880.31;;;10.32;77.32
9281;BME280;4679;47.966;7.958;2022-09-27T16:50:02;95881.88;;;10.33;77.57
9281;BME280;4679;47.966;7.958;2022-09-27T16:52:21;95864.13;;;10.33;76.49
9281;BME280;4679;47.966;7.958;2022-09-27T16:54:23;95878.97;;;10.34;76.61
9281;BME280;4679;47.966;7.958;2022-09-27T16:56:27;95875.00;;;10.32;76.76
9281;BME280;4679;47.966;7.958;2022-09-27T16:58:31;95880.56;;;10.35;76.58
9281;BME280;4679;47.966;7.958;2022-09-27T17:00:33;95868.38;;;10.34;76.61
9281;BME280;4679;47.966;7.958;2022-09-27T17:02:35;95868.88;;;10.36;77.04
9281;BME280;4679;47.966;7.958;2022-09-27T17:04:36;95880.28;;;10.37;76.10
9281;BME280;4679;47.966;7.958;2022-09-27T17:06:40;95881.88;;;10.38;75.96
9281;BME280;4679;47.966;7.958;2022-09-27T17:08:42;95878.69;;;10.36;76.09
9281;BME280;4679;47.966;7.958;2022-09-27T17:10:44;95884.53;;;10.38;76.38
9281;BME280;4679;47.966;7.958;2022-09-27T17:12:46;95889.56;;;10.34;75.70
9281;BME280;4679;47.966;7.958;2022-09-27T17:14:48;95882.69;;;10.33;76.75
9281;BME280;4679;47.966;7.958;2022-09-27T17:16:50;95875.53;;;10.34;75.90
9281;BME280;4679;47.966;7.958;2022-09-27T17:18:53;95876.84;;;10.31;75.76
9281;BME280;4679;47.966;7.958;2022-09-27T17:20:59;95871.56;;;10.31;76.00
9281;BME280;4679;47.966;7.958;2022-09-27T17:23:02;95872.63;;;10.30;75.74
9281;BME280;4679;47.966;7.958;2022-09-27T17:25:08;95877.91;;;10.30;76.35
9281;BME280;4679;47.966;7.958;2022-09-27T17:27:10;95868.91;;;10.31;76.29
9281;BME280;4679;47.966;7.958;2022-09-27T17:29:12;95876.59;;;10.28;76.60
9281;BME280;4679;47.966;7.958;2022-09-27T17:31:16;95883.50;;;10.23;76.75
9281;BME280;4679;47.966;7.958;2022-09-27T17:33:18;95877.69;;;10.21;76.44
9281;BME280;4679;47.966;7.958;2022-09-27T17:35:21;95877.19;;;10.19;76.41
9281;BME280;4679;47.966;7.958;2022-09-27T17:37:23;95880.34;;;10.21;76.41
9281;BME280;4679;47.966;7.958;2022-09-27T17:39:26;95875.84;;;10.22;76.53
9281;BME280;4679;47.966;7.958;2022-09-27T17:41:28;95887.25;;;10.23;76.24
9281;BME280;4679;47.966;7.958;2022-09-27T17:43:30;95869.47;;;10.23;76.19
9281;BME280;4679;47.966;7.958;2022-09-27T17:45:33;95869.72;;;10.27;76.44
9281;BME280;4679;47.966;7.958;2022-09-27T17:47:35;95867.31;;;10.30;76.24
9281;BME280;4679;47.966;7.958;2022-09-27T17:49:54;95877.38;;;10.33;76.37
9281;BME280;4679;47.966;7.958;2022-09-27T17:52:13;95868.38;;;10.34;75.69
9281;BME280;4679;47.966;7.958;2022-09-27T17:54:16;95866.22;;;10.36;76.83
9281;BME280;4679;47.966;7.958;2022-09-27T17:56:20;95863.84;;;10.35;76.46